Item Display Status Serial CT Sensor

Mooring Depth: 1 m

 

Deployed Sensor

  • Serial Number: 8804
  • NDBC Property Number: 35209
  • Start Date: 11/20/2016 (17:43:48 Z)
  • End Date: Currently Active
Water Temperature [°C]     6 entries per hour
Showing data from 9/25/2018 (11:00:00 Z) to 9/24/2018 (00:00:01 Z)
Previous Next [ Day | 3-Days | 7-Days ]
First Last
Prev [ Day | 3-Days | 7-Days ] Next
First Last

Start Time:     :
End Time:     :     
Time (in GMT) :00 :50 :40 :30 :20 :10
Previous Next [ Day | 3-Days | 7-Days ]
First Last
Prev [ Day | 3-Days | 7-Days ] Next
First Last


123 => good data
MM => data is determined as missing
-- => data not received/configured
Back to Top Back to Top
9/25/2018 11:00 to 10:10 28.137 28.134 28.135 28.131 28.119 28.130
9/25/2018 10:00 to 9:10 28.113 28.140 28.143 28.140 28.144 28.150
9/25/2018 09:00 to 8:10 28.148 28.132 28.125 28.137 28.135 28.145
9/25/2018 08:00 to 7:10 28.141 28.127 28.150 28.137 28.135 28.129
9/25/2018 07:00 to 6:10 28.137 28.128 28.132 28.136 28.142 28.129
9/25/2018 06:00 to 5:10 28.137 28.127 28.126 28.139 28.127 28.120
9/25/2018 05:00 to 4:10 28.122 28.128 28.134 28.129 28.119 28.134
9/25/2018 04:00 to 3:10 28.126 28.133 28.125 28.122 28.139 28.122
9/25/2018 03:00 to 2:10 28.141 28.108 28.111 28.108 28.125 28.108
9/25/2018 02:00 to 1:10 28.115 28.120 28.095 28.079 28.105 28.103
9/25/2018 01:00 to 0:10 28.054 28.016 28.038 28.048 28.090 28.086
9/25/2018 00:00 to 23:10 28.084 28.094 28.095 28.097 28.123 28.153
9/24/2018 23:00 to 22:10 28.149 28.152 28.158 28.153 28.159 28.166
9/24/2018 22:00 to 21:10 28.179 28.193 28.201 28.207 28.213 28.204
9/24/2018 21:00 to 20:10 28.197 28.223 28.237 28.223 28.187 28.159
9/24/2018 20:00 to 19:10 28.170 28.182 28.154 28.135 28.115 28.078
9/24/2018 19:00 to 18:10 28.065 28.051 28.019 28.000 27.960 27.970
9/24/2018 18:00 to 17:10 27.956 27.982 27.991 28.000 28.004 28.018
9/24/2018 17:00 to 16:10 28.022 28.042 28.037 28.078 28.107 28.130
9/24/2018 16:00 to 15:10 28.121 28.130 28.122 28.118 28.112 28.121
9/24/2018 15:00 to 14:10 28.115 28.105 28.114 28.120 28.097 28.106
9/24/2018 14:00 to 13:10 28.096 28.088 28.118 28.114 28.118 28.135
9/24/2018 13:00 to 12:10 28.141 28.123 28.120 28.123 28.129 28.108
9/24/2018 12:00 to 11:10 28.129 28.134 28.127 28.131 28.142 28.148
9/24/2018 11:00 to 10:10 28.153 28.144 28.138 28.152 28.161 28.168
9/24/2018 10:00 to 9:10 28.149 28.146 28.147 28.145 28.138 28.140
9/24/2018 09:00 to 8:10 28.128 28.127 28.118 28.133 28.118 28.117
9/24/2018 08:00 to 7:10 28.112 28.098 28.105 28.126 28.140 28.145
9/24/2018 07:00 to 6:10 28.145 28.160 28.160 28.186 28.193 28.187
9/24/2018 06:00 to 5:10 28.190 28.181 28.182 28.177 28.185 --
9/24/2018 05:00 to 4:10 28.170 28.173 28.161 28.163 28.170 28.156
9/24/2018 04:00 to 3:10 28.169 28.160 28.164 28.166 28.163 28.159
9/24/2018 03:00 to 2:10 28.170 28.165 28.162 28.173 28.168 28.164
9/24/2018 02:00 to 1:10 -- -- 28.164 28.168 28.162 28.161
9/24/2018 01:00 to 0:10 28.165 28.165 28.170 28.166 28.164 28.162

 

 

 

Conductivity [S/m]     6 entries per hour
Showing data from 9/25/2018 (11:00:00 Z) to 9/24/2018 (00:00:01 Z)
Previous Next [ Day | 3-Days | 7-Days ]
First Last
Prev [ Day | 3-Days | 7-Days ] Next
First Last

Start Time:     :
End Time:     :     
Time (in GMT) :00 :50 :40 :30 :20 :10
Previous Next [ Day | 3-Days | 7-Days ]
First Last
Prev [ Day | 3-Days | 7-Days ] Next
First Last


123 => good data
MM => data is determined as missing
-- => data not received/configured
Back to Top Back to Top
9/25/2018 11:00 to 10:10 5.43317 5.43247 5.43259 5.43316 5.43112 5.43152
9/25/2018 10:00 to 9:10 5.42985 5.43086 5.43077 5.43083 5.42987 5.43024
9/25/2018 09:00 to 8:10 5.42902 5.42721 5.42798 5.42711 5.42698 5.42731
9/25/2018 08:00 to 7:10 5.42736 5.42553 5.42634 5.42567 5.42537 5.42520
9/25/2018 07:00 to 6:10 5.42472 5.42396 5.42426 5.42352 5.42492 5.42207
9/25/2018 06:00 to 5:10 5.42272 5.42106 5.42111 5.42213 5.42072 5.42156
9/25/2018 05:00 to 4:10 5.42008 5.42007 5.42035 5.42068 5.41962 5.42070
9/25/2018 04:00 to 3:10 5.41889 5.41952 5.42047 5.42015 5.42001 5.41999
9/25/2018 03:00 to 2:10 5.42067 5.41833 5.41762 5.41802 5.41712 5.41649
9/25/2018 02:00 to 1:10 5.41860 5.41743 5.41093 5.41133 5.41167 5.40992
9/25/2018 01:00 to 0:10 5.40221 5.40052 5.39937 5.40242 5.40806 5.40462
9/25/2018 00:00 to 23:10 5.40525 5.40662 5.40698 5.40875 5.41528 5.42109
9/24/2018 23:00 to 22:10 5.42380 5.42673 5.42694 5.42520 5.42951 5.42929
9/24/2018 22:00 to 21:10 5.43228 5.43404 5.43334 5.43383 5.43352 5.43172
9/24/2018 21:00 to 20:10 5.43181 5.43543 5.43701 5.43470 5.42656 5.42088
9/24/2018 20:00 to 19:10 5.42167 5.41841 5.41535 5.41284 5.40399 5.39602
9/24/2018 19:00 to 18:10 5.39324 5.38942 5.38173 5.37534 5.37004 5.37075
9/24/2018 18:00 to 17:10 5.36780 5.37426 5.37631 5.37756 5.38261 5.38462
9/24/2018 17:00 to 16:10 5.38715 5.39009 5.38031 5.39364 5.40157 5.42570
9/24/2018 16:00 to 15:10 5.41940 5.43229 5.43043 5.42889 5.42777 5.42875
9/24/2018 15:00 to 14:10 5.42825 5.42510 5.42644 5.42813 5.42387 5.42534
9/24/2018 14:00 to 13:10 5.42314 5.42189 5.42792 5.42765 5.42834 5.43170
9/24/2018 13:00 to 12:10 5.43248 5.42882 5.42813 5.42801 5.42898 5.42438
9/24/2018 12:00 to 11:10 5.42800 5.42769 5.42504 5.42435 5.42618 5.42724
9/24/2018 11:00 to 10:10 5.42739 5.42536 5.42431 5.42808 5.43001 5.43070
9/24/2018 10:00 to 9:10 5.42732 5.42567 5.42582 5.42528 5.42343 5.42455
9/24/2018 09:00 to 8:10 5.42231 5.42224 5.41976 5.42389 5.42178 5.42141
9/24/2018 08:00 to 7:10 5.42181 5.42046 5.42034 5.43060 5.43271 5.43349
9/24/2018 07:00 to 6:10 5.43325 5.43657 5.43702 5.44222 5.44285 5.44134
9/24/2018 06:00 to 5:10 5.44216 5.44032 5.44041 5.43999 5.44029 5.43739
9/24/2018 05:00 to 4:10 5.43775 5.43757 5.43495 5.43498 5.43594 5.43398
9/24/2018 04:00 to 3:10 5.43623 5.43444 5.43453 5.43514 5.43379 5.43275
9/24/2018 03:00 to 2:10 5.43464 5.43370 5.43239 5.43424 5.43266 5.43151
9/24/2018 02:00 to 1:10 5.43096 5.43072 5.42990 5.43027 5.42872 5.42841
9/24/2018 01:00 to 0:10 5.42991 5.43043 5.42977 5.42860 5.42665 5.42624

 

 

 

Salinity [psu]     6 entries per hour
Showing data from 9/25/2018 (11:00:00 Z) to 9/24/2018 (00:00:01 Z)
Previous Next [ Day | 3-Days | 7-Days ]
First Last
Prev [ Day | 3-Days | 7-Days ] Next
First Last

Start Time:     :
End Time:     :     
Time (in GMT) :00 :50 :40 :30 :20 :10
Previous Next [ Day | 3-Days | 7-Days ]
First Last
Prev [ Day | 3-Days | 7-Days ] Next
First Last


123 => good data
MM => data is determined as missing
-- => data not received/configured
Back to Top Back to Top
9/25/2018 11:00 to 10:10 33.58 33.57 33.57 33.58 33.58 33.57
9/25/2018 10:00 to 9:10 33.57 33.56 33.56 33.56 33.55 33.55
9/25/2018 09:00 to 8:10 33.54 33.54 33.55 33.53 33.54 33.53
9/25/2018 08:00 to 7:10 33.53 33.53 33.52 33.52 33.52 33.53
9/25/2018 07:00 to 6:10 33.52 33.52 33.52 33.51 33.52 33.50
9/25/2018 06:00 to 5:10 33.50 33.50 33.50 33.50 33.50 33.51
9/25/2018 05:00 to 4:10 33.50 33.49 33.49 33.50 33.49 33.49
9/25/2018 04:00 to 3:10 33.49 33.48 33.50 33.50 33.48 33.50
9/25/2018 03:00 to 2:10 33.49 33.49 33.49 33.49 33.47 33.48
9/25/2018 02:00 to 1:10 33.49 33.48 33.45 33.47 33.45 33.44
9/25/2018 01:00 to 0:10 33.42 33.44 33.41 33.43 33.44 33.41
9/25/2018 00:00 to 23:10 33.42 33.42 33.42 33.44 33.46 33.48
9/24/2018 23:00 to 22:10 33.50 33.52 33.52 33.51 33.54 33.53
9/24/2018 22:00 to 21:10 33.54 33.54 33.53 33.53 33.53 33.52
9/24/2018 21:00 to 20:10 33.52 33.53 33.53 33.53 33.50 33.48
9/24/2018 20:00 to 19:10 33.47 33.44 33.44 33.44 33.39 33.36
9/24/2018 19:00 to 18:10 33.35 33.33 33.30 33.27 33.26 33.26
9/24/2018 18:00 to 17:10 33.25 33.28 33.28 33.29 33.32 33.32
9/24/2018 17:00 to 16:10 33.34 33.34 33.28 33.34 33.38 33.53
9/24/2018 16:00 to 15:10 33.49 33.58 33.57 33.56 33.56 33.56
9/24/2018 15:00 to 14:10 33.56 33.54 33.55 33.55 33.54 33.54
9/24/2018 14:00 to 13:10 33.54 33.53 33.55 33.55 33.56 33.57
9/24/2018 13:00 to 12:10 33.57 33.56 33.55 33.55 33.55 33.54
9/24/2018 12:00 to 11:10 33.55 33.54 33.53 33.52 33.52 33.53
9/24/2018 11:00 to 10:10 33.53 33.52 33.51 33.53 33.54 33.54
9/24/2018 10:00 to 9:10 33.53 33.52 33.52 33.52 33.51 33.51
9/24/2018 09:00 to 8:10 33.51 33.51 33.50 33.51 33.51 33.51
9/24/2018 08:00 to 7:10 33.52 33.52 33.51 33.57 33.57 33.57
9/24/2018 07:00 to 6:10 33.57 33.58 33.59 33.60 33.60 33.60
9/24/2018 06:00 to 5:10 33.60 33.59 33.59 33.60 33.59 --
9/24/2018 05:00 to 4:10 33.58 33.58 33.57 33.57 33.57 33.57
9/24/2018 04:00 to 3:10 33.58 33.57 33.57 33.57 33.56 33.56
9/24/2018 03:00 to 2:10 33.56 33.56 33.55 33.56 33.55 33.55
9/24/2018 02:00 to 1:10 -- -- 33.53 33.53 33.53 33.53
9/24/2018 01:00 to 0:10 33.53 33.54 33.53 33.52 33.51 33.51